Terminal Aerodrome Forecast
Issued by NWS Quad Cities IA IL

Home | Current Version | Previous Version | Text Only | Print | Product List | Glossary On
Versions: 1 2 3 4 5 6 7 8 9 10 11 12 13 14 15 16 17 18 19 20 21
000
FTUS43 KDVN 232300 RRA
TAFMLI
TAF
KMLI 232344Z 2400/2424 22008KT P6SM SCT200
     FM240700 22013G20KT P6SM BKN200
     FM241600 26016G25KT P6SM FEW040 BKN120
     FM242100 30016G24KT P6SM FEW035=

USA.gov is the U.S. government's official web portal to all federal, state and local government web resources and services.